createdAt,value
2022-12-05T00:01:26.345Z,59.25
2022-12-05T00:03:59.301Z,64.78
2022-12-05T00:06:28.299Z,56.17
2022-12-05T00:08:55.307Z,60.50
2022-12-05T00:11:25.488Z,65.28
2022-12-05T00:13:54.081Z,61.20
2022-12-05T00:16:23.651Z,56.97
2022-12-05T00:18:51.209Z,50.58
2022-12-05T00:21:21.085Z,54.75
2022-12-05T00:23:47.788Z,57.17
2022-12-05T00:26:14.742Z,62.15
2022-12-05T00:28:41.559Z,63.38
2022-12-05T00:31:13.808Z,63.90
2022-12-05T00:33:40.739Z,65.40
2022-12-05T00:36:12.933Z,57.70
2022-12-05T00:38:39.967Z,57.88
2022-12-05T00:41:09.626Z,67.05
2022-12-05T00:43:36.752Z,68.70
2022-12-05T00:46:08.529Z,37.00
2022-12-05T00:48:36.866Z,75.03
2022-12-05T00:51:05.631Z,62.78
2022-12-05T00:53:32.907Z,48.03
2022-12-05T00:56:08.568Z,67.32
2022-12-05T00:58:38.300Z,48.63
2022-12-05T01:01:10.505Z,49.05
2022-12-05T01:03:37.283Z,31.38
2022-12-05T01:06:06.125Z,47.15
2022-12-05T01:08:34.580Z,52.17
2022-12-05T01:11:01.485Z,48.72
2022-12-05T01:13:28.644Z,68.03
2022-12-05T01:15:55.736Z,57.45
2022-12-05T01:18:23.844Z,57.88
2022-12-05T01:20:50.679Z,57.72
2022-12-05T01:23:17.607Z,63.78
2022-12-05T01:25:48.451Z,53.90
2022-12-05T01:28:16.010Z,45.22
2022-12-05T01:30:45.250Z,48.20
2022-12-05T01:33:13.592Z,54.15
2022-12-05T01:35:41.346Z,67.65
2022-12-05T01:38:08.747Z,64.82
2022-12-05T01:40:36.265Z,58.25
2022-12-05T01:43:03.765Z,49.55
2022-12-05T01:45:42.590Z,53.83
2022-12-05T01:48:19.800Z,55.78
2022-12-05T01:50:48.673Z,67.65
2022-12-05T01:53:16.267Z,59.22
2022-12-05T01:55:43.933Z,63.10
2022-12-05T01:58:11.185Z,53.95
2022-12-05T02:00:39.753Z,48.63
2022-12-05T02:03:09.676Z,40.03
2022-12-05T02:05:38.311Z,41.00
2022-12-05T02:08:08.242Z,59.58
2022-12-05T02:10:43.080Z,58.17
2022-12-05T02:13:27.439Z,55.83
2022-12-05T02:16:04.476Z,42.40
2022-12-05T02:18:57.425Z,63.28
2022-12-05T02:21:35.864Z,47.72
2022-12-05T02:24:48.659Z,41.17
2022-12-05T02:27:54.674Z,59.13
2022-12-05T02:30:23.823Z,49.25
2022-12-05T02:33:09.063Z,47.85
2022-12-05T02:35:47.805Z,43.63
2022-12-05T02:38:52.981Z,53.60
2022-12-05T02:41:28.971Z,57.95
2022-12-05T02:44:32.270Z,53.13
2022-12-05T02:47:00.248Z,38.15
2022-12-05T02:49:35.281Z,47.85
2022-12-05T02:52:07.422Z,56.15
2022-12-05T02:54:39.206Z,39.78
2022-12-05T02:57:08.032Z,53.65
2022-12-05T02:59:34.981Z,52.63
2022-12-05T03:02:01.587Z,55.05
2022-12-05T03:04:30.360Z,46.28
2022-12-05T03:07:05.153Z,49.30
2022-12-05T03:09:37.295Z,60.30
2022-12-05T03:12:08.268Z,43.15
2022-12-05T03:14:43.784Z,38.83
2022-12-05T03:17:18.771Z,50.00
2022-12-05T03:20:03.263Z,50.78
2022-12-05T03:22:43.189Z,43.35
2022-12-05T03:25:12.303Z,47.78
2022-12-05T03:27:51.128Z,43.42
2022-12-05T03:30:20.697Z,52.90
2022-12-05T03:33:05.904Z,46.22
2022-12-05T03:35:53.946Z,40.22
2022-12-05T03:38:31.076Z,42.88
2022-12-05T03:41:05.345Z,55.20
2022-12-05T03:43:48.247Z,49.22
2022-12-05T03:46:15.013Z,42.60
2022-12-05T03:49:02.708Z,50.67
2022-12-05T03:51:36.167Z,50.58
2022-12-05T03:54:09.641Z,52.83
2022-12-05T03:56:43.726Z,43.20
2022-12-05T03:59:13.151Z,37.47
2022-12-05T04:01:42.538Z,34.78
2022-12-05T04:04:17.847Z,26.05
2022-12-05T04:06:51.834Z,26.90
2022-12-05T04:09:26.079Z,41.72
2022-12-05T04:11:58.100Z,46.92
2022-12-05T04:14:47.843Z,41.63
2022-12-05T04:17:46.986Z,45.17
2022-12-05T04:21:00.251Z,47.15
2022-12-05T04:23:27.959Z,32.97
2022-12-05T04:26:04.936Z,55.47
2022-12-05T04:28:40.349Z,39.25
2022-12-05T04:31:10.076Z,45.22
2022-12-05T04:33:52.829Z,45.05
2022-12-05T04:36:25.296Z,39.85
2022-12-05T04:38:58.131Z,19.55
2022-12-05T04:41:32.511Z,39.33
2022-12-05T04:44:04.173Z,36.58
2022-12-05T04:46:30.836Z,45.88
2022-12-05T04:49:02.270Z,50.95
2022-12-05T04:51:34.388Z,47.50
2022-12-05T04:54:10.128Z,48.08
2022-12-05T04:56:39.374Z,41.85
2022-12-05T04:59:06.042Z,47.72
2022-12-05T05:01:42.162Z,48.00
2022-12-05T05:06:48.662Z,42.50
2022-12-05T05:09:15.221Z,39.05
2022-12-05T05:11:41.949Z,41.00
2022-12-05T05:14:08.553Z,40.97
2022-12-05T05:16:41.006Z,51.90
2022-12-05T05:19:09.507Z,42.92
2022-12-05T05:21:41.425Z,47.20
2022-12-05T05:24:09.946Z,44.03
2022-12-05T05:26:39.524Z,46.70
2022-12-05T05:29:07.535Z,41.95
2022-12-05T05:31:34.197Z,43.50
2022-12-05T05:34:09.157Z,50.20
2022-12-05T05:36:37.103Z,49.85
2022-12-05T05:39:05.673Z,39.90
2022-12-05T05:41:34.710Z,50.35
2022-12-05T05:44:02.242Z,43.33
2022-12-05T05:46:33.399Z,39.08
2022-12-05T05:49:00.822Z,43.67
2022-12-05T05:51:30.593Z,46.17
2022-12-05T05:53:58.483Z,47.97
2022-12-05T05:56:25.966Z,41.72
2022-12-05T05:58:57.525Z,43.70
2022-12-05T06:01:24.599Z,39.88
2022-12-05T06:03:51.710Z,25.95
2022-12-05T06:06:19.441Z,36.60
2022-12-05T06:08:46.768Z,40.55
2022-12-05T06:11:25.692Z,41.30
2022-12-05T06:13:56.782Z,43.53
2022-12-05T06:16:23.475Z,43.85
2022-12-05T06:18:53.956Z,30.35
2022-12-05T06:21:22.069Z,34.42
2022-12-05T06:23:50.606Z,35.90
2022-12-05T06:26:20.234Z,40.38
2022-12-05T06:28:47.813Z,46.05
2022-12-05T06:31:17.955Z,41.28
2022-12-05T06:33:45.868Z,35.17
2022-12-05T06:36:16.517Z,38.88
2022-12-05T06:38:43.622Z,40.75
2022-12-05T06:41:14.610Z,38.78
2022-12-05T06:43:41.513Z,40.05
2022-12-05T06:46:10.516Z,37.65
2022-12-05T06:48:37.601Z,42.65
2022-12-05T06:51:07.068Z,33.67
2022-12-05T06:53:33.692Z,39.03
2022-12-05T06:56:06.408Z,33.22
2022-12-05T06:58:33.022Z,40.22
2022-12-05T07:01:18.819Z,40.30
2022-12-05T07:03:45.635Z,23.60
2022-12-05T07:06:12.293Z,43.15
2022-12-05T07:08:39.215Z,26.92
2022-12-05T07:11:05.935Z,40.55
2022-12-05T07:13:32.947Z,37.40
2022-12-05T07:16:00.493Z,17.63
2022-12-05T07:18:27.760Z,31.52
2022-12-05T07:21:14.876Z,34.03
2022-12-05T07:23:43.601Z,35.08
2022-12-05T07:26:13.995Z,42.42
2022-12-05T07:28:41.137Z,37.65
2022-12-05T07:31:14.261Z,39.45
2022-12-05T07:33:41.378Z,37.33
2022-12-05T07:36:14.851Z,37.13
2022-12-05T07:38:42.528Z,39.03
2022-12-05T07:41:13.450Z,38.50
2022-12-05T07:43:41.430Z,36.55
2022-12-05T07:46:11.586Z,33.38
2022-12-05T07:48:39.111Z,33.25
2022-12-05T07:51:08.130Z,31.85
2022-12-05T07:53:35.547Z,37.55
2022-12-05T07:56:04.117Z,37.53
2022-12-05T07:58:33.273Z,39.28
2022-12-05T08:01:08.760Z,39.17
2022-12-05T08:03:39.388Z,36.70
2022-12-05T08:06:11.583Z,38.40
2022-12-05T08:08:38.744Z,29.88
2022-12-05T08:11:15.455Z,33.90
2022-12-05T08:13:43.465Z,35.90
2022-12-05T08:16:13.912Z,27.83
2022-12-05T08:18:42.428Z,37.15
2022-12-05T08:21:13.550Z,38.92
2022-12-05T08:23:40.709Z,37.63
2022-12-05T08:26:13.463Z,37.22
2022-12-05T08:28:40.977Z,39.10
2022-12-05T08:31:16.625Z,34.42
2022-12-05T08:33:43.886Z,37.38
2022-12-05T08:36:14.045Z,37.08
2022-12-05T08:38:41.288Z,37.72
2022-12-05T08:41:10.993Z,37.55
2022-12-05T08:43:39.251Z,36.47
2022-12-05T08:46:08.238Z,36.35
2022-12-05T08:48:36.222Z,32.67
2022-12-05T08:51:10.693Z,33.97
2022-12-05T08:53:43.810Z,32.85
2022-12-05T08:56:12.184Z,29.83
2022-12-05T08:58:39.455Z,24.77
2022-12-05T09:01:17.825Z,30.90
2022-12-05T09:03:48.213Z,20.42
2022-12-05T09:06:21.408Z,21.15
2022-12-05T09:08:53.804Z,38.88
2022-12-05T09:11:24.192Z,39.03
2022-12-05T09:13:52.814Z,40.38
2022-12-05T09:16:22.669Z,40.90
2022-12-05T09:18:51.385Z,27.52
2022-12-05T09:21:20.638Z,21.90
2022-12-05T09:23:48.787Z,25.90
2022-12-05T09:28:57.377Z,29.90
2022-12-05T09:31:29.600Z,26.60
2022-12-05T09:33:56.613Z,27.55
2022-12-05T09:36:28.622Z,23.20
2022-12-05T09:38:59.103Z,32.50
2022-12-05T09:41:50.035Z,38.95
2022-12-05T09:44:34.123Z,40.33
2022-12-05T09:47:38.691Z,35.90
2022-12-05T09:50:36.879Z,38.45
2022-12-05T09:53:31.155Z,41.85
2022-12-05T09:56:06.202Z,39.47
2022-12-05T09:58:41.994Z,39.03
2022-12-05T10:01:36.727Z,37.88
2022-12-05T10:04:06.707Z,39.75
2022-12-05T10:06:47.370Z,34.92
2022-12-05T10:09:19.797Z,42.15
2022-12-05T10:12:31.029Z,34.95
2022-12-05T10:15:28.842Z,37.33
2022-12-05T10:18:25.157Z,39.60
2022-12-05T10:22:01.229Z,37.65
2022-12-05T10:25:05.040Z,37.83
2022-12-05T10:27:40.235Z,37.28
2022-12-05T10:30:17.881Z,47.08
2022-12-05T10:32:54.883Z,37.53
2022-12-05T10:35:27.707Z,40.58
2022-12-05T10:38:22.456Z,33.38
2022-12-05T10:40:52.882Z,41.78
2022-12-05T10:43:26.686Z,33.22
2022-12-05T10:45:53.597Z,37.30
2022-12-05T10:48:23.030Z,39.50
2022-12-05T10:50:52.522Z,39.97
2022-12-05T10:53:28.604Z,41.15
2022-12-05T10:56:28.688Z,36.40
2022-12-05T10:58:57.577Z,40.10
2022-12-05T11:01:26.199Z,40.95
2022-12-05T11:03:59.850Z,37.40
2022-12-05T11:06:31.619Z,43.15
2022-12-05T11:09:13.481Z,46.28
2022-12-05T11:11:40.444Z,20.05
2022-12-05T11:14:26.104Z,28.40
2022-12-05T11:16:55.495Z,41.13
2022-12-05T11:19:25.269Z,30.17
2022-12-05T11:21:53.722Z,35.42
2022-12-05T11:24:32.034Z,39.90
2022-12-05T11:27:32.301Z,37.85
2022-12-05T11:30:10.718Z,40.90
2022-12-05T11:32:37.357Z,42.50
2022-12-05T11:35:22.698Z,35.47
2022-12-05T11:37:56.869Z,37.78
2022-12-05T11:40:40.102Z,43.03
2022-12-05T11:43:32.997Z,48.47
2022-12-05T11:46:20.159Z,41.58
2022-12-05T11:49:18.083Z,46.72
2022-12-05T11:52:04.503Z,45.20
2022-12-05T11:57:35.016Z,41.00
2022-12-05T12:00:15.785Z,32.15
2022-12-05T12:03:01.026Z,50.03
2022-12-05T12:05:58.099Z,49.22
2022-12-05T12:08:30.441Z,46.17
2022-12-05T12:11:15.508Z,45.65
2022-12-05T12:14:00.730Z,41.25
2022-12-05T12:17:10.471Z,49.42
2022-12-05T12:20:03.579Z,50.15
2022-12-05T12:22:59.172Z,48.65
2022-12-05T12:26:08.329Z,57.50
2022-12-05T12:28:47.985Z,51.90
2022-12-05T12:31:31.945Z,55.38
2022-12-05T12:34:26.531Z,47.55
2022-12-05T12:37:06.198Z,54.00
2022-12-05T12:40:07.368Z,57.40
2022-12-05T12:42:40.015Z,55.00
2022-12-05T12:45:33.685Z,57.72
2022-12-05T12:48:25.981Z,51.28
2022-12-05T12:51:05.773Z,54.75
2022-12-05T12:55:02.316Z,53.10
2022-12-05T12:57:33.801Z,56.47
2022-12-05T13:00:12.326Z,57.22
2022-12-05T13:02:48.562Z,60.22
2022-12-05T13:05:47.220Z,54.40
2022-12-05T13:08:22.530Z,54.00
2022-12-05T13:10:50.075Z,54.43
2022-12-05T13:13:24.188Z,51.33
2022-12-05T13:15:57.983Z,50.63
2022-12-05T13:18:25.498Z,51.40
2022-12-05T13:20:56.602Z,50.25
2022-12-05T13:23:27.107Z,49.88
2022-12-05T13:25:56.881Z,53.80
2022-12-05T13:28:32.485Z,49.15
2022-12-05T13:31:02.683Z,52.88
2022-12-05T13:33:36.186Z,55.75
2022-12-05T13:36:28.413Z,46.22
2022-12-05T13:39:19.259Z,47.33
2022-12-05T13:42:14.074Z,55.05
2022-12-05T13:44:45.364Z,48.67
2022-12-05T13:47:32.307Z,50.50
2022-12-05T13:50:21.218Z,53.90
2022-12-05T13:52:55.291Z,49.20
2022-12-05T13:55:38.424Z,40.83
2022-12-05T13:58:21.766Z,53.03
2022-12-05T14:00:50.712Z,53.10
2022-12-05T14:03:40.281Z,51.63
2022-12-05T14:06:07.412Z,50.03
2022-12-05T14:08:52.678Z,53.65
2022-12-05T14:11:19.657Z,50.72
2022-12-05T14:13:46.445Z,56.30
2022-12-05T14:16:25.147Z,61.10
2022-12-05T14:19:33.899Z,58.40
2022-12-05T14:22:24.189Z,55.25
2022-12-05T14:25:04.460Z,55.83
2022-12-05T14:27:53.414Z,56.10
2022-12-05T14:30:30.042Z,60.38
2022-12-05T14:33:01.974Z,57.80
2022-12-05T14:35:42.541Z,57.22
2022-12-05T14:38:23.594Z,63.20
2022-12-05T14:40:51.460Z,58.05
2022-12-05T14:43:40.762Z,57.17
2022-12-05T14:46:15.819Z,51.35
2022-12-05T14:48:48.656Z,53.75
2022-12-05T14:51:30.303Z,55.10
2022-12-05T14:54:14.860Z,60.47
2022-12-05T14:56:50.619Z,41.85
2022-12-05T14:59:32.240Z,57.30
2022-12-05T15:02:02.075Z,54.60
2022-12-05T15:04:47.024Z,44.80
2022-12-05T15:07:35.114Z,36.75
2022-12-05T15:10:01.993Z,28.90
2022-12-05T15:12:46.985Z,59.08
2022-12-05T15:15:17.524Z,41.78
2022-12-05T15:17:53.385Z,53.03
2022-12-05T15:20:46.644Z,56.22
2022-12-05T15:23:43.200Z,35.60
2022-12-05T15:26:48.707Z,43.05
2022-12-05T15:29:23.292Z,47.17
2022-12-05T15:31:53.251Z,31.42
2022-12-05T15:34:47.828Z,34.60
2022-12-05T15:37:32.862Z,38.95
2022-12-05T15:40:02.439Z,58.00
2022-12-05T15:42:34.750Z,57.97
2022-12-05T15:45:13.849Z,53.33
2022-12-05T15:48:05.128Z,55.30
2022-12-05T15:50:42.051Z,54.88
2022-12-05T15:53:14.671Z,51.33
2022-12-05T15:55:56.548Z,56.40
2022-12-05T15:58:27.431Z,50.20
2022-12-05T16:01:01.731Z,54.92
2022-12-05T16:03:36.910Z,52.47
2022-12-05T16:06:29.438Z,58.45
2022-12-05T16:09:01.412Z,48.72
2022-12-05T16:11:28.238Z,57.40
2022-12-05T16:14:01.084Z,50.33
2022-12-05T16:16:32.626Z,58.97
2022-12-05T16:19:07.956Z,69.85
2022-12-05T16:21:39.423Z,70.87
2022-12-05T16:24:11.261Z,66.30
2022-12-05T16:26:39.791Z,71.07
2022-12-05T16:29:09.559Z,68.10
2022-12-05T16:31:36.580Z,69.93
2022-12-05T16:34:06.906Z,78.25
2022-12-05T16:36:34.913Z,66.65
2022-12-05T16:39:07.692Z,77.03
2022-12-05T16:41:40.788Z,72.25
2022-12-05T16:44:46.449Z,69.10
2022-12-05T16:47:42.140Z,79.80
2022-12-05T16:50:22.628Z,84.55
2022-12-05T16:52:50.278Z,78.00
2022-12-05T16:55:19.736Z,70.00
2022-12-05T16:57:46.435Z,73.13
2022-12-05T17:00:16.002Z,74.03
2022-12-05T17:02:42.589Z,77.90
2022-12-05T17:05:14.065Z,80.88
2022-12-05T17:07:40.748Z,78.40
2022-12-05T17:10:08.177Z,80.30
2022-12-05T17:12:34.934Z,87.20
2022-12-05T17:15:01.791Z,78.78
2022-12-05T17:17:30.759Z,82.55
2022-12-05T17:20:01.516Z,79.80
2022-12-05T17:22:28.347Z,83.53
2022-12-05T17:24:58.944Z,97.60
2022-12-05T17:27:25.749Z,84.60
2022-12-05T17:29:52.404Z,87.00
2022-12-05T17:32:19.073Z,91.72
2022-12-05T17:34:45.637Z,84.93
2022-12-05T17:37:12.234Z,76.53
2022-12-05T17:39:39.051Z,80.43
2022-12-05T17:42:05.684Z,85.53
2022-12-05T17:44:37.936Z,74.28
2022-12-05T17:47:07.998Z,77.72
2022-12-05T17:49:35.125Z,67.47
2022-12-05T17:54:52.096Z,64.78
2022-12-05T17:57:19.862Z,68.72
2022-12-05T17:59:46.484Z,68.40
2022-12-05T18:02:15.219Z,66.45
2022-12-05T18:04:41.777Z,73.20
2022-12-05T18:07:08.435Z,80.65
2022-12-05T18:09:35.094Z,81.30
2022-12-05T18:12:02.309Z,81.72
2022-12-05T18:14:28.996Z,81.47
2022-12-05T18:16:56.210Z,92.60
2022-12-05T18:19:24.941Z,110.20
2022-12-05T18:21:51.519Z,93.35
2022-12-05T18:24:18.406Z,122.28
2022-12-05T18:26:45.054Z,76.78
2022-12-05T18:29:16.161Z,362.98
2022-12-05T18:31:56.335Z,82.82
2022-12-05T18:34:25.842Z,119.97
2022-12-05T18:36:52.458Z,93.78
2022-12-05T18:39:19.030Z,97.07
2022-12-05T18:41:45.646Z,107.50
2022-12-05T18:44:12.736Z,95.13
2022-12-05T18:46:39.617Z,91.80
2022-12-05T18:49:06.496Z,81.25
2022-12-05T18:51:33.187Z,79.88
2022-12-05T18:54:00.207Z,116.32
2022-12-05T18:56:31.436Z,93.63
2022-12-05T18:59:02.640Z,95.47
2022-12-05T19:01:32.636Z,90.55
2022-12-05T19:04:01.105Z,78.53
2022-12-05T19:06:30.159Z,81.40
2022-12-05T19:08:59.334Z,109.18
2022-12-05T19:11:27.322Z,90.05
2022-12-05T19:14:00.684Z,87.28
2022-12-05T19:16:29.496Z,82.03
2022-12-05T19:18:58.900Z,79.00
2022-12-05T19:21:27.067Z,75.57
2022-12-05T19:23:54.279Z,70.18
2022-12-05T19:26:21.772Z,68.05
2022-12-05T19:28:49.121Z,78.85
2022-12-05T19:31:20.606Z,73.68
2022-12-05T19:33:49.866Z,82.65
2022-12-05T19:36:20.210Z,77.72
2022-12-05T19:38:48.562Z,84.88
2022-12-05T19:41:16.665Z,81.18
2022-12-05T19:43:52.285Z,79.97
2022-12-05T19:46:30.859Z,72.53
2022-12-05T19:48:59.299Z,81.00
2022-12-05T19:51:26.530Z,82.65
2022-12-05T19:53:54.350Z,81.22
2022-12-05T19:56:23.929Z,86.25
2022-12-05T19:58:52.462Z,76.15
2022-12-05T20:01:21.037Z,81.90
2022-12-05T20:03:53.671Z,68.70
2022-12-05T20:06:21.632Z,75.38
2022-12-05T20:08:58.816Z,72.38
2022-12-05T20:11:26.600Z,73.05
2022-12-05T20:13:55.484Z,77.50
2022-12-05T20:16:25.835Z,83.45
2022-12-05T20:18:54.160Z,80.88
2022-12-05T20:21:23.010Z,99.57
2022-12-05T20:23:50.543Z,97.93
2022-12-05T20:26:22.463Z,100.85
2022-12-05T20:28:49.805Z,131.40
2022-12-05T20:31:24.144Z,108.88
2022-12-05T20:33:53.797Z,126.00
2022-12-05T20:36:26.200Z,107.32
2022-12-05T20:39:01.588Z,100.20
2022-12-05T20:41:28.751Z,199.27
2022-12-05T20:43:59.716Z,114.80
2022-12-05T20:46:28.021Z,105.63
2022-12-05T20:48:56.362Z,113.22
2022-12-05T20:51:27.359Z,93.53
2022-12-05T20:53:54.054Z,108.25
2022-12-05T20:56:26.915Z,105.20
2022-12-05T20:58:56.513Z,94.20
2022-12-05T21:01:24.657Z,98.95
2022-12-05T21:03:52.523Z,91.05
2022-12-05T21:06:25.396Z,113.47
2022-12-05T21:08:52.947Z,84.78
2022-12-05T21:11:20.797Z,89.03
2022-12-05T21:13:47.416Z,92.85
2022-12-05T21:16:17.302Z,97.10
2022-12-05T21:18:44.945Z,98.85
2022-12-05T21:21:14.776Z,94.25
2022-12-05T21:23:46.790Z,96.38
2022-12-05T21:26:15.795Z,93.18
2022-12-05T21:28:43.389Z,98.80
2022-12-05T21:31:13.481Z,104.97
2022-12-05T21:33:41.339Z,95.22
2022-12-05T21:36:09.308Z,115.97
2022-12-05T21:38:36.095Z,136.80
2022-12-05T21:41:04.226Z,98.47
2022-12-05T21:43:32.984Z,96.97
2022-12-05T21:45:59.644Z,107.60
2022-12-05T21:48:26.563Z,107.43
2022-12-05T21:50:53.632Z,98.80
2022-12-05T21:53:21.071Z,99.68
2022-12-05T21:55:48.125Z,100.82
2022-12-05T21:58:17.620Z,107.50
2022-12-05T22:00:44.257Z,109.25
2022-12-05T22:03:14.873Z,125.38
2022-12-05T22:05:42.113Z,101.47
2022-12-05T22:08:08.906Z,94.22
2022-12-05T22:10:36.012Z,99.50
2022-12-05T22:13:03.502Z,90.72
2022-12-05T22:15:30.423Z,94.35
2022-12-05T22:17:57.033Z,129.90
2022-12-05T22:20:23.942Z,123.88
2022-12-05T22:22:50.608Z,134.15
2022-12-05T22:25:17.239Z,125.32
2022-12-05T22:27:43.912Z,108.68
2022-12-05T22:30:10.858Z,121.18
2022-12-05T22:32:37.442Z,108.95
2022-12-05T22:35:04.633Z,92.78
2022-12-05T22:37:31.660Z,97.45
2022-12-05T22:39:59.013Z,88.10
2022-12-05T22:42:28.684Z,92.32
2022-12-05T22:44:56.321Z,90.43
2022-12-05T22:47:23.354Z,107.15
2022-12-05T22:49:49.903Z,96.85
2022-12-05T22:52:16.565Z,94.20
2022-12-05T22:54:43.184Z,100.53
2022-12-05T22:57:09.754Z,103.10
2022-12-05T22:59:36.381Z,92.35
2022-12-05T23:02:02.981Z,106.22
2022-12-05T23:04:29.614Z,90.43
2022-12-05T23:06:58.812Z,96.80
2022-12-05T23:09:25.408Z,96.88
2022-12-05T23:11:52.033Z,96.15
2022-12-05T23:14:18.743Z,105.88
2022-12-05T23:16:45.364Z,103.07
2022-12-05T23:19:12.008Z,93.68
2022-12-05T23:21:40.325Z,110.97
2022-12-05T23:24:10.540Z,105.80
2022-12-05T23:26:41.647Z,116.18
2022-12-05T23:29:09.301Z,95.07
2022-12-05T23:31:36.183Z,97.60
2022-12-05T23:34:04.228Z,106.28
2022-12-05T23:36:33.312Z,97.05
2022-12-05T23:39:00.298Z,107.13
2022-12-05T23:41:27.579Z,95.47
2022-12-05T23:43:54.914Z,93.70
2022-12-05T23:46:24.040Z,86.90
2022-12-05T23:48:51.812Z,89.88
2022-12-05T23:51:21.242Z,91.93
2022-12-05T23:53:51.800Z,93.40
2022-12-05T23:56:20.540Z,85.75
2022-12-05T23:58:47.426Z,82.93
